Time;durP1;ratioP1;P1;durP2;ratioP2;P2;SDS_P1;SDS_P2;PMS_P1;PMS_P2;Temp;Humidity;BMP_temperature;BMP_pressure;BME280_temperature;BME280_humidity;BME280_pressure;Samples;Min_cycle;Max_cycle;Signal;HPM_P1;HPM_P2
2021/07/24 00:02:24;;;;;;;10.97;7.83;;;20.90;63.00;;;;;;4984649;28;20463;-77
2021/07/24 00:04:49;;;;;;;14.43;7.93;;;20.90;63.10;;;;;;4976957;28;20207;-77
2021/07/24 00:07:15;;;;;;;9.93;6.70;;;20.90;63.20;;;;;;4944218;28;20463;-76
2021/07/24 00:09:41;;;;;;;8.13;6.93;;;20.90;63.30;;;;;;4966424;28;20733;-77
2021/07/24 00:12:07;;;;;;;10.70;7.60;;;20.90;63.70;;;;;;4936924;29;20680;-76
2021/07/24 00:14:32;;;;;;;10.97;7.20;;;20.80;63.90;;;;;;4964567;28;20298;-75
2021/07/24 00:16:58;;;;;;;10.20;6.53;;;20.80;64.30;;;;;;4969639;28;20511;-75
2021/07/24 00:19:24;;;;;;;11.07;7.40;;;20.70;64.60;;;;;;4973268;28;20601;-75
2021/07/24 00:21:49;;;;;;;9.70;7.47;;;20.70;64.80;;;;;;4955653;28;20673;-76
2021/07/24 00:24:15;;;;;;;9.67;7.17;;;20.60;65.00;;;;;;4972905;28;20234;-75
2021/07/24 00:26:42;;;;;;;10.60;6.73;;;20.60;65.50;;;;;;4972668;28;20270;-75
2021/07/24 00:29:08;;;;;;;13.57;10.10;;;20.50;65.70;;;;;;4973285;28;20187;-75
2021/07/24 00:31:34;;;;;;;12.53;7.00;;;20.50;65.60;;;;;;4973521;28;20770;-76
2021/07/24 00:34:00;;;;;;;8.47;7.27;;;20.50;65.90;;;;;;4973004;28;20762;-75
2021/07/24 00:36:27;;;;;;;10.40;7.10;;;20.50;66.10;;;;;;4973521;28;20769;-75
2021/07/24 00:38:52;;;;;;;9.10;7.30;;;20.50;66.40;;;;;;4973305;28;20418;-75
2021/07/24 00:41:46;;;;;;;15.00;11.67;;;20.50;66.40;;;;;;4973065;28;20400;-75
2021/07/24 00:44:16;;;;;;;14.30;8.80;;;20.50;66.20;;;;;;4972570;28;20199;-75
2021/07/24 00:46:44;;;;;;;10.30;8.67;;;20.50;66.10;;;;;;4997007;23;20480;-82
2021/07/24 00:49:12;;;;;;;10.43;8.37;;;20.50;66.00;;;;;;5040685;28;20566;-82
2021/07/24 00:51:49;;;;;;;11.27;8.33;;;20.50;65.90;;;;;;5055483;28;20727;-81
2021/07/24 00:54:15;;;;;;;8.73;7.77;;;20.50;65.90;;;;;;5056487;28;20562;-83
2021/07/24 00:56:43;;;;;;;13.00;8.10;;;20.50;65.80;;;;;;5038185;28;20445;-83
2021/07/24 00:59:12;;;;;;;8.90;7.40;;;20.50;65.80;;;;;;5055849;28;20436;-82
2021/07/24 01:01:52;;;;;;;10.33;7.43;;;20.50;65.80;;;;;;5034049;28;20532;-77
2021/07/24 01:04:19;;;;;;;12.37;8.20;;;20.50;66.00;;;;;;5019520;28;20429;-77
2021/07/24 01:06:47;;;;;;;10.77;7.60;;;20.50;66.20;;;;;;4993974;28;20434;-77
2021/07/24 01:09:13;;;;;;;12.17;7.97;;;20.40;66.70;;;;;;5014000;28;20446;-78
2021/07/24 01:11:39;;;;;;;10.53;7.80;;;20.40;67.20;;;;;;5015417;28;20417;-77
2021/07/24 01:14:05;;;;;;;12.67;9.87;;;20.30;67.40;;;;;;5014918;28;20445;-78
2021/07/24 01:16:31;;;;;;;15.43;7.93;;;20.30;67.80;;;;;;5015074;28;20211;-77
2021/07/24 01:19:09;;;;;;;14.60;8.63;;;20.30;68.20;;;;;;4998934;28;20432;-77
2021/07/24 01:21:44;;;;;;;12.87;10.03;;;20.20;68.50;;;;;;4998912;28;20398;-77
2021/07/24 01:24:11;;;;;;;12.27;8.27;;;20.10;68.90;;;;;;5014602;28;20488;-79
2021/07/24 01:26:36;;;;;;;11.60;8.23;;;20.10;69.10;;;;;;5014304;28;20479;-77
2021/07/24 01:29:03;;;;;;;10.20;8.30;;;20.10;69.20;;;;;;5015753;28;20202;-76
2021/07/24 01:31:30;;;;;;;10.03;7.70;;;20.10;69.20;;;;;;5015772;28;20436;-77
2021/07/24 01:33:57;;;;;;;10.63;8.10;;;20.00;69.40;;;;;;5017711;28;20456;-77
2021/07/24 01:36:22;;;;;;;10.20;7.50;;;20.00;69.60;;;;;;5045093;28;20795;-76
2021/07/24 01:38:49;;;;;;;11.97;9.60;;;19.90;69.90;;;;;;5047049;28;20320;-75
2021/07/24 01:41:15;;;;;;;9.20;8.20;;;19.80;70.00;;;;;;5019259;28;20262;-79
2021/07/24 01:43:43;;;;;;;11.60;8.63;;;19.80;70.20;;;;;;5036093;28;20408;-77
2021/07/24 01:46:12;;;;;;;11.63;8.60;;;19.80;70.30;;;;;;5035166;28;20413;-76
2021/07/24 01:55:00;;;;;;;15.97;8.00;;;19.70;71.10;;;;;;5047900;28;20447;-77
2021/07/24 01:57:28;;;;;;;11.50;9.27;;;19.60;71.40;;;;;;5033282;28;20822;-77
2021/07/24 02:00:08;;;;;;;13.37;8.17;;;19.60;71.60;;;;;;5000567;28;20421;-77
2021/07/24 02:02:47;;;;;;;10.30;7.93;;;19.60;71.90;;;;;;5034690;28;20403;-77
2021/07/24 02:05:23;;;;;;;11.83;9.03;;;19.50;72.00;;;;;;5034612;28;20892;-78
2021/07/24 02:07:50;;;;;;;11.00;8.90;;;19.50;72.40;;;;;;4999987;28;20448;-76
2021/07/24 02:10:16;;;;;;;11.57;10.17;;;19.50;72.50;;;;;;5015988;28;20845;-77
2021/07/24 02:12:54;;;;;;;12.70;8.97;;;19.40;72.70;;;;;;5028620;28;20523;-77
2021/07/24 02:15:21;;;;;;;12.67;8.83;;;19.40;72.90;;;;;;4996764;28;20429;-76
2021/07/24 02:17:49;;;;;;;9.87;8.33;;;19.40;74.00;;;;;;5013407;28;20448;-77
2021/07/24 02:20:19;;;;;;;10.30;8.40;;;19.30;73.60;;;;;;4997101;28;20922;-76
2021/07/24 02:22:44;;;;;;;13.27;8.37;;;19.30;73.60;;;;;;4996065;28;20413;-77
2021/07/24 02:25:11;;;;;;;11.93;8.40;;;19.30;73.80;;;;;;4995975;28;20429;-77
2021/07/24 02:27:38;;;;;;;11.70;8.70;;;19.30;74.00;;;;;;4996634;28;20510;-77
2021/07/24 02:30:08;;;;;;;13.10;9.90;;;19.30;73.90;;;;;;4997020;28;20418;-77
2021/07/24 02:32:34;;;;;;;12.50;8.00;;;19.30;74.00;;;;;;5014801;28;20407;-75
2021/07/24 02:35:00;;;;;;;14.33;9.83;;;19.30;74.20;;;;;;4999513;28;20165;-75
2021/07/24 02:37:26;;;;;;;10.17;8.30;;;19.30;74.20;;;;;;5022619;28;20455;-76
2021/07/24 02:39:52;;;;;;;10.23;8.90;;;19.20;74.30;;;;;;5021868;28;20170;-76
2021/07/24 02:42:18;;;;;;;12.43;9.10;;;19.10;74.60;;;;;;5033174;28;20170;-77
2021/07/24 02:44:43;;;;;;;12.07;8.67;;;19.10;75.00;;;;;;5033378;28;20456;-77
2021/07/24 02:47:09;;;;;;;11.43;9.60;;;19.10;75.30;;;;;;5033313;28;20186;-76
2021/07/24 02:49:38;;;;;;;11.87;9.47;;;19.10;75.60;;;;;;5015768;28;20551;-76
2021/07/24 02:52:05;;;;;;;13.30;8.50;;;19.10;76.50;;;;;;4999316;28;20506;-76
2021/07/24 02:54:32;;;;;;;10.10;9.03;;;19.00;75.60;;;;;;5032843;28;20456;-76
2021/07/24 02:56:58;;;;;;;12.63;9.33;;;19.00;75.90;;;;;;5032113;28;20426;-77
2021/07/24 02:59:24;;;;;;;11.07;9.27;;;19.00;75.90;;;;;;5032360;28;20446;-76
2021/07/24 03:01:50;;;;;;;12.07;9.50;;;19.00;76.10;;;;;;4995823;28;20176;-77
2021/07/24 03:04:16;;;;;;;10.60;9.00;;;19.00;76.30;;;;;;4995237;28;20430;-76
2021/07/24 03:06:41;;;;;;;11.20;8.47;;;18.90;76.10;;;;;;5014875;28;20228;-76
2021/07/24 03:09:07;;;;;;;14.33;8.03;;;18.90;76.30;;;;;;5018505;28;20577;-76
2021/07/24 03:11:36;;;;;;;13.33;9.90;;;18.90;76.60;;;;;;5037589;28;20509;-77
2021/07/24 03:14:02;;;;;;;12.13;9.40;;;18.90;76.90;;;;;;5018649;28;20256;-76
2021/07/24 03:16:28;;;;;;;18.50;9.80;;;18.90;77.20;;;;;;5036844;28;20518;-76
2021/07/24 03:18:54;;;;;;;15.20;10.07;;;18.90;77.30;;;;;;5036240;28;20476;-77
2021/07/24 03:21:19;;;;;;;9.80;8.80;;;18.90;77.40;;;;;;5036205;28;20334;-77
2021/07/24 03:23:45;;;;;;;13.80;10.10;;;18.90;77.60;;;;;;5036237;28;20444;-77
2021/07/24 03:26:11;;;;;;;9.90;8.90;;;18.80;78.00;;;;;;5017342;28;20184;-76
2021/07/24 03:28:37;;;;;;;11.40;9.00;;;18.80;78.10;;;;;;5036128;28;20418;-76
2021/07/24 03:31:03;;;;;;;9.80;8.77;;;18.80;78.30;;;;;;5035841;28;20901;-77
2021/07/24 03:33:29;;;;;;;10.27;9.10;;;18.80;78.40;;;;;;5017797;28;20598;-76
2021/07/24 03:35:55;;;;;;;12.33;8.43;;;18.80;78.50;;;;;;5035581;28;20464;-76
2021/07/24 03:38:21;;;;;;;13.47;9.27;;;18.80;78.60;;;;;;5009637;28;20419;-76
2021/07/24 03:40:47;;;;;;;11.70;8.60;;;18.80;78.70;;;;;;5014243;28;20180;-76
2021/07/24 03:43:13;;;;;;;14.07;9.70;;;18.80;78.80;;;;;;5015661;28;20224;-76
2021/07/24 03:45:39;;;;;;;13.83;9.03;;;18.90;78.90;;;;;;4997782;28;20430;-76
2021/07/24 03:48:05;;;;;;;11.43;8.90;;;18.90;78.90;;;;;;5014976;28;20431;-75
2021/07/24 03:50:31;;;;;;;12.47;8.60;;;18.90;79.10;;;;;;5015983;28;20171;-74
2021/07/24 03:52:57;;;;;;;9.77;8.60;;;18.90;79.10;;;;;;5037242;28;20208;-74
2021/07/24 03:55:23;;;;;;;13.70;9.83;;;18.90;79.30;;;;;;5026645;28;20491;-75
2021/07/24 03:57:50;;;;;;;12.80;9.17;;;19.00;79.20;;;;;;5015523;28;20448;-75
2021/07/24 04:00:16;;;;;;;12.93;10.67;;;19.00;78.80;;;;;;5016293;28;20841;-75
2021/07/24 04:02:43;;;;;;;11.63;9.70;;;19.10;78.80;;;;;;5016569;28;20479;-75
2021/07/24 04:05:09;;;;;;;12.50;8.80;;;19.10;78.70;;;;;;4998473;28;20402;-76
2021/07/24 04:07:36;;;;;;;12.73;9.50;;;19.20;78.30;;;;;;5031769;28;20540;-76
2021/07/24 04:10:04;;;;;;;13.80;9.43;;;19.20;78.10;;;;;;5035895;28;20894;-78
2021/07/24 04:12:30;;;;;;;10.33;8.87;;;19.30;78.10;;;;;;5037196;28;20515;-76
2021/07/24 04:14:58;;;;;;;12.50;8.97;;;19.40;77.40;;;;;;5039335;28;20422;-77
2021/07/24 04:17:24;;;;;;;11.80;9.10;;;19.40;76.40;;;;;;5023180;28;20603;-76
2021/07/24 04:19:50;;;;;;;10.00;8.80;;;19.50;75.50;;;;;;5044818;28;20453;-77
2021/07/24 04:22:16;;;;;;;12.23;9.10;;;19.50;75.00;;;;;;5043932;28;20167;-76
2021/07/24 04:24:41;;;;;;;11.87;8.67;;;19.50;74.50;;;;;;5045446;28;20425;-76
2021/07/24 04:27:08;;;;;;;14.23;8.93;;;19.50;74.20;;;;;;5046503;28;20194;-76
2021/07/24 04:29:33;;;;;;;15.10;10.03;;;19.50;73.90;;;;;;5047528;28;20176;-77
2021/07/24 04:32:01;;;;;;;12.63;8.70;;;19.50;73.90;;;;;;5046119;28;20498;-76
2021/07/24 04:34:29;;;;;;;9.40;8.17;;;19.50;73.70;;;;;;5048363;28;20473;-75
2021/07/24 04:36:54;;;;;;;11.30;8.57;;;19.50;73.40;;;;;;5047538;28;20444;-75
2021/07/24 04:39:20;;;;;;;10.93;9.73;;;19.50;73.30;;;;;;5045683;28;20412;-76
2021/07/24 04:41:46;;;;;;;13.17;9.53;;;19.60;73.10;;;;;;5047784;28;20201;-77
2021/07/24 04:44:11;;;;;;;11.23;8.93;;;19.60;72.80;;;;;;5026939;28;20177;-76
2021/07/24 04:46:37;;;;;;;10.77;8.93;;;19.60;72.40;;;;;;5024765;28;20189;-77
2021/07/24 04:49:03;;;;;;;10.83;9.10;;;19.60;72.40;;;;;;5025132;28;20575;-75
2021/07/24 04:51:29;;;;;;;10.67;9.00;;;19.70;72.40;;;;;;5040459;28;20182;-77
2021/07/24 04:53:55;;;;;;;10.83;8.90;;;19.70;72.40;;;;;;5032264;28;20204;-77
2021/07/24 04:56:22;;;;;;;12.00;7.87;;;19.70;72.00;;;;;;5023413;28;20508;-75
2021/07/24 04:58:49;;;;;;;11.53;9.23;;;19.70;72.10;;;;;;5022097;28;20421;-76
2021/07/24 05:01:18;;;;;;;13.33;9.63;;;19.80;72.10;;;;;;5002629;28;20419;-77
2021/07/24 05:03:43;;;;;;;10.97;8.60;;;19.80;71.90;;;;;;5009163;28;20790;-77
2021/07/24 05:06:09;;;;;;;12.40;9.50;;;19.90;71.70;;;;;;5038537;28;20408;-78
2021/07/24 05:08:36;;;;;;;11.43;8.97;;;20.00;71.40;;;;;;5041066;28;20268;-76
2021/07/24 05:11:02;;;;;;;11.80;9.27;;;20.00;71.00;;;;;;5040105;28;20170;-76
2021/07/24 05:13:28;;;;;;;12.17;8.70;;;20.10;71.60;;;;;;5034669;28;20468;-77
2021/07/24 05:15:53;;;;;;;10.90;9.27;;;20.10;70.30;;;;;;5034877;28;20812;-77
2021/07/24 05:18:19;;;;;;;9.80;8.63;;;20.10;69.90;;;;;;5035228;28;20189;-76
2021/07/24 05:20:45;;;;;;;12.37;9.07;;;20.10;70.00;;;;;;5036158;28;20170;-77
2021/07/24 05:23:11;;;;;;;13.57;9.13;;;20.10;70.10;;;;;;5034864;28;20416;-75
2021/07/24 05:25:38;;;;;;;13.93;9.27;;;20.10;70.10;;;;;;5035439;28;20543;-78
2021/07/24 05:28:03;;;;;;;12.80;8.87;;;20.10;70.20;;;;;;5017034;28;20215;-76
2021/07/24 05:30:29;;;;;;;12.43;9.30;;;20.10;70.10;;;;;;5033698;28;20415;-76
2021/07/24 05:32:55;;;;;;;10.73;9.20;;;20.20;70.10;;;;;;5016418;28;20205;-76
2021/07/24 05:35:21;;;;;;;11.83;8.60;;;20.20;70.00;;;;;;5015672;28;20416;-77
2021/07/24 05:37:47;;;;;;;10.87;8.90;;;20.20;69.80;;;;;;5007805;28;20235;-76
2021/07/24 05:40:13;;;;;;;12.43;9.57;;;20.20;69.30;;;;;;5015633;28;20455;-78
2021/07/24 05:42:39;;;;;;;16.23;10.70;;;20.20;69.60;;;;;;5015018;28;20541;-78
2021/07/24 05:45:05;;;;;;;12.30;9.90;;;20.20;69.50;;;;;;5015033;28;20449;-77
2021/07/24 05:47:31;;;;;;;12.43;9.47;;;20.30;69.50;;;;;;5028234;28;20265;-76
2021/07/24 05:49:57;;;;;;;11.80;8.87;;;20.50;69.00;;;;;;5035084;28;20488;-77
2021/07/24 05:52:24;;;;;;;13.33;9.50;;;20.60;68.30;;;;;;5034938;28;20420;-77
2021/07/24 05:54:50;;;;;;;11.27;8.90;;;20.80;68.40;;;;;;5025067;28;20468;-76
2021/07/24 05:57:16;;;;;;;10.20;8.70;;;21.10;67.10;;;;;;5027636;28;20440;-76
2021/07/24 05:59:42;;;;;;;10.97;8.77;;;21.50;65.10;;;;;;5018006;28;20171;-77
2021/07/24 06:02:11;;;;;;;15.47;8.80;;;21.90;64.10;;;;;;5015804;28;20410;-76
2021/07/24 06:04:39;;;;;;;11.50;9.20;;;22.20;62.40;;;;;;5015828;28;20197;-77
2021/07/24 06:07:05;;;;;;;12.83;8.53;;;22.40;61.20;;;;;;5017135;28;20499;-78
2021/07/24 06:09:31;;;;;;;9.13;8.10;;;22.60;60.00;;;;;;5024634;28;20417;-77
2021/07/24 06:11:56;;;;;;;10.80;9.70;;;22.80;59.60;;;;;;5024572;28;20426;-77
2021/07/24 06:14:23;;;;;;;14.93;8.90;;;22.90;59.20;;;;;;5024732;28;20274;-79
2021/07/24 06:16:49;;;;;;;15.13;10.47;;;23.00;58.80;;;;;;5014457;28;20179;-76
2021/07/24 06:19:15;;;;;;;10.40;8.90;;;23.00;58.80;;;;;;5015212;28;20806;-77
2021/07/24 06:21:41;;;;;;;14.90;10.07;;;22.90;59.40;;;;;;5015262;28;20425;-77
2021/07/24 06:24:06;;;;;;;14.70;9.13;;;22.90;58.60;;;;;;5015703;28;20248;-77
2021/07/24 06:26:36;;;;;;;10.70;7.90;;;22.80;58.80;;;;;;5014358;28;20187;-77
2021/07/24 06:29:01;;;;;;;12.43;10.03;;;22.80;58.90;;;;;;5019579;28;20167;-77
2021/07/24 06:31:27;;;;;;;11.40;8.17;;;22.80;58.80;;;;;;5017661;28;20419;-77
2021/07/24 06:33:53;;;;;;;11.60;8.47;;;22.70;58.80;;;;;;5016538;28;20194;-77
2021/07/24 06:36:18;;;;;;;10.00;8.77;;;22.60;58.90;;;;;;5029369;28;20181;-78
2021/07/24 06:38:44;;;;;;;10.40;8.30;;;22.40;59.10;;;;;;4998442;28;20179;-78
2021/07/24 06:41:10;;;;;;;11.90;8.80;;;22.30;59.40;;;;;;5014170;28;20167;-76
2021/07/24 06:43:35;;;;;;;10.93;9.07;;;22.20;59.50;;;;;;5018488;28;20577;-76
2021/07/24 06:46:11;;;;;;;10.87;8.73;;;22.20;60.90;;;;;;5017980;28;20637;-76
2021/07/24 06:48:37;;;;;;;13.20;9.15;;;22.10;59.60;;;;;;5018083;28;20454;-77
2021/07/24 06:51:09;;;;;;;11.97;8.70;;;22.10;59.90;;;;;;5018781;28;20649;-76
2021/07/24 06:53:35;;;;;;;12.30;8.93;;;22.10;59.60;;;;;;5026147;28;20489;-77
2021/07/24 06:56:03;;;;;;;10.13;8.40;;;22.10;59.50;;;;;;5041955;28;20918;-76
2021/07/24 06:58:29;;;;;;;14.10;8.40;;;22.20;59.60;;;;;;5046239;28;20422;-75
2021/07/24 07:00:55;;;;;;;10.50;8.87;;;22.20;59.60;;;;;;5028887;28;20814;-77
2021/07/24 07:03:21;;;;;;;12.33;8.60;;;22.30;59.80;;;;;;5028716;28;20427;-76
2021/07/24 07:05:49;;;;;;;24.97;8.70;;;22.50;59.70;;;;;;5046774;28;20432;-76
2021/07/24 07:08:15;;;;;;;12.90;8.50;;;22.60;59.30;;;;;;5037592;28;20560;-76
2021/07/24 07:10:40;;;;;;;10.10;8.93;;;22.70;59.50;;;;;;5038246;28;20405;-77
2021/07/24 07:13:06;;;;;;;12.40;7.50;;;22.80;59.30;;;;;;5020491;28;20560;-77
2021/07/24 07:15:31;;;;;;;11.30;8.70;;;23.00;58.80;;;;;;5020231;28;20341;-76
2021/07/24 07:17:57;;;;;;;12.30;8.83;;;23.10;58.70;;;;;;5021401;28;20292;-76
2021/07/24 07:20:23;;;;;;;10.90;8.20;;;23.30;58.80;;;;;;5039201;28;20513;-77
2021/07/24 07:22:49;;;;;;;10.43;9.07;;;23.70;58.80;;;;;;5037738;28;20195;-77
2021/07/24 07:25:15;;;;;;;11.13;9.93;;;23.90;56.90;;;;;;5035828;28;20479;-77
2021/07/24 07:27:42;;;;;;;10.90;8.30;;;23.90;57.10;;;;;;5037923;28;20351;-76
2021/07/24 07:30:09;;;;;;;16.47;9.30;;;23.90;56.60;;;;;;5040220;28;20380;-76
2021/07/24 07:32:37;;;;;;;10.43;8.53;;;23.70;57.30;;;;;;5021539;28;20481;-79
2021/07/24 07:35:04;;;;;;;11.13;8.70;;;23.60;57.10;;;;;;5037245;28;20472;-77
2021/07/24 07:37:29;;;;;;;10.40;8.53;;;23.50;57.10;;;;;;5033544;28;20973;-77
2021/07/24 07:39:55;;;;;;;16.17;8.30;;;23.30;57.80;;;;;;5009711;28;20426;-77
2021/07/24 07:42:21;;;;;;;16.03;9.60;;;23.20;58.20;;;;;;5036651;28;20159;-76
2021/07/24 07:44:47;;;;;;;13.07;8.83;;;23.10;58.60;;;;;;5018319;28;20652;-76
2021/07/24 07:47:12;;;;;;;13.60;9.50;;;23.00;59.00;;;;;;5029464;28;20187;-75
2021/07/24 07:49:38;;;;;;;15.63;8.50;;;23.00;59.20;;;;;;5033990;28;20179;-77
2021/07/24 07:52:05;;;;;;;13.70;9.60;;;23.20;59.80;;;;;;5017873;28;20182;-77
2021/07/24 07:54:33;;;;;;;11.97;9.00;;;23.50;58.70;;;;;;5023205;28;20277;-77
2021/07/24 07:56:59;;;;;;;10.90;8.40;;;23.90;57.90;;;;;;5015212;28;20988;-78
2021/07/24 07:59:25;;;;;;;11.40;9.40;;;24.20;57.50;;;;;;5037861;28;20404;-78
2021/07/24 08:01:51;;;;;;;11.03;8.90;;;24.50;56.20;;;;;;5035369;28;20980;-77
2021/07/24 08:04:17;;;;;;;8.80;7.90;;;24.80;55.70;;;;;;5035946;28;20213;-75
2021/07/24 08:06:42;;;;;;;16.50;8.47;;;24.90;54.40;;;;;;5036484;28;20245;-77
2021/07/24 08:09:08;;;;;;;12.40;8.47;;;24.70;55.00;;;;;;5018633;28;20262;-77
2021/07/24 08:11:34;;;;;;;9.53;8.17;;;24.50;55.70;;;;;;5036529;28;20224;-77
2021/07/24 08:13:59;;;;;;;10.93;8.73;;;24.30;56.30;;;;;;5039736;28;20198;-77
2021/07/24 08:16:25;;;;;;;12.97;9.03;;;24.10;56.60;;;;;;5035652;28;20210;-77
2021/07/24 08:18:50;;;;;;;14.27;9.00;;;23.90;56.50;;;;;;5035990;28;20551;-77
2021/07/24 08:21:16;;;;;;;11.87;8.60;;;23.80;57.00;;;;;;5020233;28;20178;-77
2021/07/24 08:23:45;;;;;;;13.60;9.37;;;23.60;57.70;;;;;;5040556;28;20166;-77
2021/07/24 08:26:11;;;;;;;11.40;8.33;;;23.40;58.20;;;;;;5038903;28;20166;-77
2021/07/24 08:28:36;;;;;;;13.30;9.60;;;23.30;58.70;;;;;;5007078;28;20504;-77
2021/07/24 08:31:07;;;;;;;11.23;8.03;;;23.30;58.90;;;;;;5041148;28;20452;-77
2021/07/24 08:33:35;;;;;;;11.10;8.33;;;23.20;59.40;;;;;;5038314;28;20651;-79
2021/07/24 08:36:00;;;;;;;14.57;9.83;;;23.10;59.50;;;;;;5037328;28;20472;-78
2021/07/24 08:38:33;;;;;;;18.00;10.03;;;23.00;59.90;;;;;;5011546;28;20409;-77
2021/07/24 08:40:59;;;;;;;12.07;9.20;;;22.90;59.70;;;;;;5026476;28;20288;-78
2021/07/24 08:43:25;;;;;;;15.33;12.23;;;22.80;60.20;;;;;;5022197;28;20475;-77
2021/07/24 08:45:51;;;;;;;19.00;10.27;;;22.70;60.30;;;;;;5017965;28;20174;-77
2021/07/24 08:48:18;;;;;;;12.30;9.67;;;22.60;59.90;;;;;;5001987;28;20197;-77
2021/07/24 08:50:44;;;;;;;15.83;9.90;;;22.60;60.60;;;;;;5019174;28;20441;-75
2021/07/24 08:53:13;;;;;;;12.03;9.13;;;22.60;61.10;;;;;;5021456;28;20480;-74
2021/07/24 08:55:41;;;;;;;11.80;8.67;;;22.60;61.00;;;;;;5039353;28;20821;-74
2021/07/24 08:58:10;;;;;;;12.10;9.60;;;22.60;61.20;;;;;;5033457;28;20497;-77
2021/07/24 09:00:36;;;;;;;11.10;10.00;;;22.60;61.20;;;;;;5033571;28;20803;-76
2021/07/24 09:03:02;;;;;;;13.53;9.07;;;22.60;61.70;;;;;;5031462;28;20496;-76
2021/07/24 09:05:36;;;;;;;13.80;9.70;;;22.50;60.60;;;;;;5030054;28;20167;-77
2021/07/24 09:08:06;;;;;;;12.03;8.87;;;22.40;61.40;;;;;;5010651;28;20842;-75
2021/07/24 09:10:32;;;;;;;11.70;8.60;;;22.40;61.40;;;;;;5031253;28;20417;-76
2021/07/24 09:12:58;;;;;;;12.13;8.70;;;22.40;62.30;;;;;;5015415;28;20460;-75
2021/07/24 09:15:24;;;;;;;11.20;9.50;;;22.40;62.40;;;;;;5005629;28;20565;-75
2021/07/24 09:17:49;;;;;;;12.90;9.67;;;22.40;62.50;;;;;;5029659;28;20190;-75
2021/07/24 09:20:18;;;;;;;13.03;10.30;;;22.40;62.60;;;;;;5033515;28;20496;-75
2021/07/24 09:22:45;;;;;;;12.70;9.63;;;22.40;62.40;;;;;;5028849;28;20236;-75
2021/07/24 09:25:18;;;;;;;11.83;9.17;;;22.40;62.60;;;;;;5015484;28;20444;-75
2021/07/24 09:27:45;;;;;;;11.97;9.80;;;22.40;62.50;;;;;;5033215;28;20435;-75
2021/07/24 09:30:29;;;;;;;13.10;9.70;;;22.40;62.60;;;;;;5015632;28;20457;-75
2021/07/24 09:33:12;;;;;;;13.73;8.93;;;22.30;62.80;;;;;;5035056;28;20969;-77
2021/07/24 09:35:44;;;;;;;13.10;9.97;;;22.20;62.80;;;;;;5037753;28;20413;-78
2021/07/24 09:38:30;;;;;;;13.27;9.90;;;22.20;64.20;;;;;;5040423;28;20436;-82
2021/07/24 09:40:58;;;;;;;17.50;11.33;;;22.20;65.20;;;;;;5045977;28;20437;-82
2021/07/24 09:43:39;;;;;;;13.20;9.60;;;22.30;65.20;;;;;;5037868;28;20796;-83
2021/07/24 09:46:21;;;;;;;16.00;10.60;;;22.30;65.70;;;;;;5044540;28;20485;-82
2021/07/24 09:48:51;;;;;;;14.47;9.00;;;22.40;65.90;;;;;;5039985;28;20460;-82
2021/07/24 09:51:41;;;;;;;22.57;11.30;;;22.40;65.40;;;;;;5028804;28;20429;-82
2021/07/24 09:54:26;;;;;;;23.37;16.17;;;22.50;65.20;;;;;;5034497;28;20457;-82
2021/07/24 09:56:52;;;;;;;11.60;9.40;;;22.60;65.00;;;;;;5020855;28;20469;-81
2021/07/24 09:59:31;;;;;;;17.53;9.60;;;22.50;64.40;;;;;;5032204;28;20437;-82
2021/07/24 10:02:01;;;;;;;16.40;9.67;;;22.50;64.40;;;;;;4995493;28;20429;-82
2021/07/24 10:04:35;;;;;;;14.87;10.53;;;22.50;64.30;;;;;;5039824;28;20431;-81
2021/07/24 10:07:05;;;;;;;12.20;9.57;;;22.50;64.60;;;;;;5015571;28;20437;-81
2021/07/24 10:09:33;;;;;;;16.77;10.60;;;22.50;65.00;;;;;;5033838;28;20380;-80
2021/07/24 10:12:04;;;;;;;12.13;9.87;;;22.50;65.10;;;;;;5036364;28;20782;-81
2021/07/24 10:14:30;;;;;;;12.83;9.23;;;22.40;64.50;;;;;;5045162;28;20461;-80
2021/07/24 10:16:57;;;;;;;14.87;10.93;;;22.50;65.10;;;;;;5018305;28;20454;-81
2021/07/24 10:19:25;;;;;;;14.67;10.70;;;22.60;64.60;;;;;;5029970;28;20201;-80
2021/07/24 10:22:09;;;;;;;13.50;9.33;;;22.60;64.70;;;;;;5048286;28;20405;-81
2021/07/24 10:24:35;;;;;;;14.17;11.40;;;22.60;64.90;;;;;;5030523;28;20527;-82
2021/07/24 10:27:06;;;;;;;14.13;10.87;;;22.60;65.00;;;;;;5021592;28;20444;-81
2021/07/24 10:30:05;;;;;;;13.10;10.70;;;22.60;64.80;;;;;;5037667;28;20170;-81
2021/07/24 10:32:36;;;;;;;12.83;9.93;;;22.60;65.20;;;;;;5016460;28;20437;-79
2021/07/24 10:35:03;;;;;;;16.30;10.93;;;22.60;65.00;;;;;;5037638;28;20468;-80
2021/07/24 10:37:35;;;;;;;17.10;11.20;;;22.60;64.90;;;;;;5024233;28;20840;-82
2021/07/24 10:40:32;;;;;;;15.70;11.50;;;22.60;65.70;;;;;;5024474;28;20463;-82
2021/07/24 10:42:58;;;;;;;18.60;10.77;;;22.70;66.20;;;;;;5024513;28;20475;-81
2021/07/24 10:45:33;;;;;;;27.63;14.43;;;22.70;65.00;;;;;;5011845;28;20496;-81
2021/07/24 10:48:14;;;;;;;16.37;12.60;;;22.70;64.90;;;;;;5045862;28;20202;-82
2021/07/24 10:51:00;;;;;;;15.33;12.00;;;22.70;64.50;;;;;;5032634;28;20429;-81
2021/07/24 10:53:46;;;;;;;12.77;11.40;;;22.70;64.90;;;;;;5022463;28;20450;-81
2021/07/24 10:56:38;;;;;;;18.37;12.53;;;22.70;65.00;;;;;;5028016;28;20434;-81
2021/07/24 10:59:17;;;;;;;20.57;12.00;;;22.70;64.80;;;;;;5033751;28;20411;-81
2021/07/24 11:01:48;;;;;;;18.30;13.07;;;22.70;65.20;;;;;;5018294;28;20460;-81
2021/07/24 11:04:36;;;;;;;16.63;11.63;;;22.80;66.30;;;;;;5040708;28;20520;-81
2021/07/24 11:07:24;;;;;;;15.30;11.37;;;22.70;67.30;;;;;;5044234;28;20441;-81
2021/07/24 11:09:53;;;;;;;15.03;12.33;;;22.70;68.30;;;;;;5025154;28;20402;-81
2021/07/24 11:12:36;;;;;;;16.50;11.57;;;22.50;68.80;;;;;;5037143;28;20418;-81
2021/07/24 11:15:08;;;;;;;18.30;12.50;;;22.40;68.90;;;;;;5022919;28;20464;-81
2021/07/24 11:17:37;;;;;;;18.47;12.47;;;22.30;69.40;;;;;;5052481;28;20471;-82
2021/07/24 11:20:17;;;;;;;15.60;12.80;;;22.30;69.90;;;;;;5014995;28;20418;-82
2021/07/24 11:23:06;;;;;;;21.77;12.30;;;22.30;70.80;;;;;;5021554;28;20433;-85
2021/07/24 11:25:33;;;;;;;20.47;14.93;;;22.20;70.50;;;;;;5040861;28;20425;-81
2021/07/24 11:28:00;;;;;;;18.93;11.57;;;22.10;70.80;;;;;;5026869;28;20925;-81
2021/07/24 11:30:26;;;;;;;20.13;12.90;;;22.00;71.30;;;;;;5041593;28;20426;-83
2021/07/24 11:32:56;;;;;;;14.47;11.27;;;22.00;71.90;;;;;;5045247;28;20426;-81
2021/07/24 11:35:28;;;;;;;18.30;11.97;;;21.90;72.30;;;;;;5049706;28;20523;-83
2021/07/24 11:37:54;;;;;;;19.70;12.17;;;21.90;72.70;;;;;;5047525;28;20440;-82
2021/07/24 11:40:25;;;;;;;30.03;15.70;;;21.90;73.30;;;;;;5047548;28;20417;-80
2021/07/24 11:43:16;;;;;;;17.20;11.63;;;21.90;74.30;;;;;;5049194;28;20714;-82
2021/07/24 11:45:45;;;;;;;19.63;12.63;;;21.80;74.30;;;;;;5033011;28;20418;-79
2021/07/24 11:48:15;;;;;;;18.73;12.17;;;21.80;74.40;;;;;;5032643;28;20839;-81
2021/07/24 11:50:43;;;;;;;16.97;12.10;;;21.70;74.90;;;;;;5046220;28;20409;-79
2021/07/24 11:53:11;;;;;;;23.40;18.23;;;21.70;76.20;;;;;;5045276;28;20448;-82
2021/07/24 11:55:39;;;;;;;18.27;14.47;;;21.60;77.30;;;;;;5028697;28;20409;-82
2021/07/24 11:58:07;;;;;;;21.40;14.73;;;21.60;78.20;;;;;;5026724;28;20417;-81
2021/07/24 12:00:38;;;;;;;17.73;13.70;;;21.50;79.40;;;;;;5026358;28;20426;-80
2021/07/24 12:03:20;;;;;;;16.77;14.00;;;21.40;80.70;;;;;;5031040;28;20434;-78
2021/07/24 12:05:48;;;;;;;19.53;14.47;;;21.40;81.80;;;;;;5034940;28;20453;-80
2021/07/24 12:08:16;;;;;;;19.20;15.30;;;21.40;82.50;;;;;;5028623;28;20488;-81
2021/07/24 12:10:44;;;;;;;17.67;14.17;;;21.30;83.10;;;;;;5028738;28;20424;-81
2021/07/24 12:13:12;;;;;;;19.60;14.73;;;21.30;84.00;;;;;;5029100;28;20540;-83
2021/07/24 12:16:08;;;;;;;23.87;16.70;;;21.10;84.10;;;;;;5028668;28;20403;-81
2021/07/24 12:18:41;;;;;;;26.87;18.37;;;21.00;85.50;;;;;;5024569;28;20393;-81
2021/07/24 12:21:12;;;;;;;27.37;16.20;;;20.90;86.40;;;;;;5027347;28;20464;-80
2021/07/24 12:23:43;;;;;;;22.90;14.60;;;20.90;87.30;;;;;;5009151;28;20485;-82
2021/07/24 12:26:14;;;;;;;19.30;15.23;;;20.80;87.40;;;;;;5027031;28;20410;-81
2021/07/24 12:28:42;;;;;;;21.10;15.43;;;20.80;87.30;;;;;;5007280;28;20473;-81
2021/07/24 12:31:30;;;;;;;23.33;15.50;;;20.70;88.00;;;;;;5024236;28;20448;-82
2021/07/24 12:34:01;;;;;;;23.00;15.20;;;20.60;88.70;;;;;;5024461;28;20457;-81
2021/07/24 12:36:29;;;;;;;21.30;16.37;;;20.50;89.40;;;;;;5024632;28;20437;-82
2021/07/24 12:38:57;;;;;;;26.30;19.17;;;20.40;90.10;;;;;;5005861;28;20418;-81
2021/07/24 12:41:29;;;;;;;22.60;17.37;;;20.40;90.30;;;;;;5024012;28;20421;-82
2021/07/24 12:44:06;;;;;;;20.90;17.67;;;20.40;90.50;;;;;;5005756;28;20513;-81
2021/07/24 12:46:33;;;;;;;26.67;18.07;;;20.40;91.00;;;;;;5006110;28;20441;-82
2021/07/24 12:48:59;;;;;;;27.97;21.07;;;20.40;91.50;;;;;;5024919;28;20813;-81
2021/07/24 12:51:41;;;;;;;26.33;18.20;;;20.50;92.10;;;;;;5025218;28;20414;-79